Huvudsida
METAR-TAF:

METAR-TAF

Flygplatser :

Valladolid Airport

Valladolid, Spanien

latitud: 41-43N, longitud: 004-51W, höjd: 849 m

Aktuellt väderrapport

Denna rapport gjordes för 2 timmar och 34 minuter sedan, klockan 20:30 UTC
Vind 5 kt från ost
Temperatur 9°C
Fuktighet 93%
Tryck 1018 hPa
Sikt 10 km eller mer
Inga moln under 1 500 m eller inga cumulonimbus

METAR: LEVD 162030Z 09005KT CAVOK 09/08 Q1018

Tid: 00:04 (23:04 UTC)

Väderprognos

Denna rapport gjordes för 6 timmar och 4 minuter sedan, klockan 17:00 UTC
Prognos gäller från 16 kl. 18 UTC till 17 kl. 18 UTC
Vind 6 kt från ost/sydost
Sikt 10 km eller mer
Få moln på en höjd av 4000 ft
Sannolikhet 30% :
Temporärt
från 16 kl. 18 UTC till 16 kl. 20 UTC
regn
Sannolikhet 30% :
Temporärt
från 17 kl. 04 UTC till 17 kl. 10 UTC
Sikt: 3000 m
Brutna moln på en höjd av 1000 ft
fuktdis

TAF: LEVD 161700Z 1618/1718 12006KT 9999 FEW040 TX15/1714Z TN04/1707Z PROB30 TEMPO 1618/1620 RA PROB30 TEMPO 1704/1710 3000 BR BKN010

Aktuella väderrapporter och prognoser från 4000 flygplatser (METAR- och TAF-rapporter).

De tillgängliga stationerna syns som gula och röda prickar på kartan.

För musen över prickarna för att se namnen på stationerna.

Klicka sedan för att få väderrapporter och prognoser.

För att ändra kartan: Klicka på de gröna knapparna med ett svart kors på för att zooma in; den gröna knappen med ett streck på för att zooma ut; eller på de gröna pilarna för angränsande kartor.


METAR-TAF: